sensor_id;sensor_type;location;lat;lon;timestamp;P1;durP1;ratioP1;P2;durP2;ratioP2
18168;SDS011;49877;50.398;30.324;2022-07-29T00:00:14;7.97;;;4.40;;
18168;SDS011;49877;50.398;30.324;2022-07-29T00:02:41;10.47;;;4.47;;
18168;SDS011;49877;50.398;30.324;2022-07-29T00:05:08;7.40;;;4.30;;
18168;SDS011;49877;50.398;30.324;2022-07-29T00:07:38;7.10;;;4.13;;
18168;SDS011;49877;50.398;30.324;2022-07-29T00:10:05;9.93;;;4.40;;
18168;SDS011;49877;50.398;30.324;2022-07-29T00:12:32;8.27;;;4.77;;
18168;SDS011;49877;50.398;30.324;2022-07-29T00:15:01;7.67;;;4.77;;
18168;SDS011;49877;50.398;30.324;2022-07-29T00:17:28;8.63;;;5.13;;
18168;SDS011;49877;50.398;30.324;2022-07-29T00:19:55;9.23;;;5.00;;
18168;SDS011;49877;50.398;30.324;2022-07-29T00:22:22;7.43;;;4.10;;
18168;SDS011;49877;50.398;30.324;2022-07-29T00:24:49;7.80;;;4.63;;
18168;SDS011;49877;50.398;30.324;2022-07-29T00:27:16;7.30;;;4.90;;
18168;SDS011;49877;50.398;30.324;2022-07-29T00:29:43;8.00;;;4.73;;
18168;SDS011;49877;50.398;30.324;2022-07-29T00:32:12;9.90;;;4.80;;
18168;SDS011;49877;50.398;30.324;2022-07-29T00:34:39;6.47;;;4.13;;
18168;SDS011;49877;50.398;30.324;2022-07-29T00:37:23;6.60;;;3.57;;
18168;SDS011;49877;50.398;30.324;2022-07-29T00:39:51;7.27;;;3.97;;
18168;SDS011;49877;50.398;30.324;2022-07-29T00:42:17;8.50;;;4.57;;
18168;SDS011;49877;50.398;30.324;2022-07-29T00:44:44;7.73;;;4.50;;
18168;SDS011;49877;50.398;30.324;2022-07-29T00:47:13;9.03;;;5.03;;
18168;SDS011;49877;50.398;30.324;2022-07-29T00:49:40;8.37;;;5.00;;
18168;SDS011;49877;50.398;30.324;2022-07-29T00:52:08;7.10;;;4.27;;
18168;SDS011;49877;50.398;30.324;2022-07-29T00:54:36;5.80;;;4.10;;
18168;SDS011;49877;50.398;30.324;2022-07-29T00:57:05;7.47;;;5.00;;
18168;SDS011;49877;50.398;30.324;2022-07-29T00:59:33;9.33;;;4.40;;
18168;SDS011;49877;50.398;30.324;2022-07-29T01:02:00;11.03;;;5.13;;
18168;SDS011;49877;50.398;30.324;2022-07-29T01:04:29;9.17;;;4.90;;
18168;SDS011;49877;50.398;30.324;2022-07-29T01:06:56;9.67;;;5.30;;
18168;SDS011;49877;50.398;30.324;2022-07-29T01:09:24;8.60;;;5.50;;
18168;SDS011;49877;50.398;30.324;2022-07-29T01:11:52;9.07;;;5.43;;
18168;SDS011;49877;50.398;30.324;2022-07-29T01:14:19;11.17;;;5.97;;
18168;SDS011;49877;50.398;30.324;2022-07-29T01:16:49;10.47;;;5.40;;
18168;SDS011;49877;50.398;30.324;2022-07-29T01:19:28;15.40;;;6.03;;
18168;SDS011;49877;50.398;30.324;2022-07-29T01:22:14;10.90;;;5.27;;
18168;SDS011;49877;50.398;30.324;2022-07-29T01:27:57;9.77;;;5.43;;
18168;SDS011;49877;50.398;30.324;2022-07-29T01:30:35;9.67;;;5.60;;
18168;SDS011;49877;50.398;30.324;2022-07-29T01:33:06;10.77;;;5.37;;
18168;SDS011;49877;50.398;30.324;2022-07-29T01:35:57;11.00;;;5.60;;
18168;SDS011;49877;50.398;30.324;2022-07-29T01:38:27;8.27;;;5.00;;
18168;SDS011;49877;50.398;30.324;2022-07-29T01:40:58;12.30;;;5.97;;
18168;SDS011;49877;50.398;30.324;2022-07-29T01:43:31;9.03;;;5.30;;
18168;SDS011;49877;50.398;30.324;2022-07-29T01:46:04;10.00;;;5.63;;
18168;SDS011;49877;50.398;30.324;2022-07-29T01:48:38;12.73;;;5.60;;
18168;SDS011;49877;50.398;30.324;2022-07-29T01:51:11;7.73;;;4.93;;
18168;SDS011;49877;50.398;30.324;2022-07-29T01:53:42;7.27;;;4.70;;
18168;SDS011;49877;50.398;30.324;2022-07-29T01:56:13;9.27;;;5.27;;
18168;SDS011;49877;50.398;30.324;2022-07-29T01:58:42;8.73;;;5.17;;
18168;SDS011;49877;50.398;30.324;2022-07-29T02:01:12;9.57;;;5.00;;
18168;SDS011;49877;50.398;30.324;2022-07-29T02:03:41;11.30;;;5.70;;
18168;SDS011;49877;50.398;30.324;2022-07-29T02:06:11;9.83;;;5.10;;
18168;SDS011;49877;50.398;30.324;2022-07-29T02:08:40;9.23;;;5.30;;
18168;SDS011;49877;50.398;30.324;2022-07-29T02:11:08;8.93;;;5.03;;
18168;SDS011;49877;50.398;30.324;2022-07-29T02:13:35;9.80;;;5.20;;
18168;SDS011;49877;50.398;30.324;2022-07-29T02:16:04;12.53;;;6.63;;
18168;SDS011;49877;50.398;30.324;2022-07-29T02:18:34;10.57;;;6.07;;
18168;SDS011;49877;50.398;30.324;2022-07-29T02:21:03;10.40;;;5.53;;
18168;SDS011;49877;50.398;30.324;2022-07-29T02:23:31;9.47;;;5.60;;
18168;SDS011;49877;50.398;30.324;2022-07-29T02:26:01;10.73;;;6.23;;
18168;SDS011;49877;50.398;30.324;2022-07-29T02:28:29;9.57;;;6.30;;
18168;SDS011;49877;50.398;30.324;2022-07-29T02:30:57;11.00;;;6.33;;
18168;SDS011;49877;50.398;30.324;2022-07-29T02:33:28;10.57;;;6.10;;
18168;SDS011;49877;50.398;30.324;2022-07-29T02:35:58;10.13;;;5.83;;
18168;SDS011;49877;50.398;30.324;2022-07-29T02:38:26;10.00;;;6.00;;
18168;SDS011;49877;50.398;30.324;2022-07-29T02:41:10;13.17;;;6.30;;
18168;SDS011;49877;50.398;30.324;2022-07-29T02:43:40;9.23;;;5.80;;
18168;SDS011;49877;50.398;30.324;2022-07-29T02:46:11;8.43;;;5.40;;
18168;SDS011;49877;50.398;30.324;2022-07-29T02:48:41;8.87;;;5.80;;
18168;SDS011;49877;50.398;30.324;2022-07-29T02:51:15;9.77;;;6.43;;
18168;SDS011;49877;50.398;30.324;2022-07-29T02:53:49;8.83;;;6.00;;
18168;SDS011;49877;50.398;30.324;2022-07-29T02:56:20;12.40;;;5.93;;
18168;SDS011;49877;50.398;30.324;2022-07-29T02:58:53;11.20;;;6.13;;
18168;SDS011;49877;50.398;30.324;2022-07-29T03:01:23;8.77;;;5.90;;
18168;SDS011;49877;50.398;30.324;2022-07-29T03:03:53;10.07;;;5.77;;
18168;SDS011;49877;50.398;30.324;2022-07-29T03:06:23;8.77;;;5.83;;
18168;SDS011;49877;50.398;30.324;2022-07-29T03:08:52;8.07;;;5.50;;
18168;SDS011;49877;50.398;30.324;2022-07-29T03:11:21;9.17;;;5.90;;
18168;SDS011;49877;50.398;30.324;2022-07-29T03:13:49;9.83;;;5.90;;
18168;SDS011;49877;50.398;30.324;2022-07-29T03:16:16;12.43;;;6.43;;
18168;SDS011;49877;50.398;30.324;2022-07-29T03:18:45;10.00;;;5.90;;
18168;SDS011;49877;50.398;30.324;2022-07-29T03:21:13;8.90;;;5.63;;
18168;SDS011;49877;50.398;30.324;2022-07-29T03:23:44;11.87;;;6.43;;
18168;SDS011;49877;50.398;30.324;2022-07-29T03:26:11;12.83;;;5.60;;
18168;SDS011;49877;50.398;30.324;2022-07-29T03:28:39;10.97;;;6.27;;
18168;SDS011;49877;50.398;30.324;2022-07-29T03:31:06;11.37;;;5.70;;
18168;SDS011;49877;50.398;30.324;2022-07-29T03:33:32;11.43;;;7.63;;
18168;SDS011;49877;50.398;30.324;2022-07-29T03:35:59;12.67;;;8.30;;
18168;SDS011;49877;50.398;30.324;2022-07-29T03:38:27;11.73;;;6.23;;
18168;SDS011;49877;50.398;30.324;2022-07-29T03:40:58;12.23;;;6.90;;
18168;SDS011;49877;50.398;30.324;2022-07-29T03:43:29;10.13;;;5.77;;
18168;SDS011;49877;50.398;30.324;2022-07-29T03:45:58;9.50;;;5.70;;
18168;SDS011;49877;50.398;30.324;2022-07-29T03:48:26;9.77;;;5.30;;
18168;SDS011;49877;50.398;30.324;2022-07-29T03:50:56;8.23;;;5.07;;
18168;SDS011;49877;50.398;30.324;2022-07-29T03:53:23;13.27;;;5.60;;
18168;SDS011;49877;50.398;30.324;2022-07-29T03:55:53;12.00;;;5.57;;
18168;SDS011;49877;50.398;30.324;2022-07-29T03:58:26;8.60;;;4.93;;
18168;SDS011;49877;50.398;30.324;2022-07-29T04:00:54;7.03;;;4.90;;
18168;SDS011;49877;50.398;30.324;2022-07-29T04:03:21;7.50;;;4.53;;
18168;SDS011;49877;50.398;30.324;2022-07-29T04:05:57;8.47;;;5.23;;
18168;SDS011;49877;50.398;30.324;2022-07-29T04:08:25;6.33;;;4.57;;
18168;SDS011;49877;50.398;30.324;2022-07-29T04:10:52;7.43;;;4.50;;
18168;SDS011;49877;50.398;30.324;2022-07-29T04:13:19;8.20;;;4.77;;
18168;SDS011;49877;50.398;30.324;2022-07-29T04:15:47;11.87;;;5.40;;
18168;SDS011;49877;50.398;30.324;2022-07-29T04:18:14;9.93;;;4.80;;
18168;SDS011;49877;50.398;30.324;2022-07-29T04:20:41;8.87;;;4.80;;
18168;SDS011;49877;50.398;30.324;2022-07-29T04:23:08;8.20;;;4.17;;
18168;SDS011;49877;50.398;30.324;2022-07-29T04:25:36;8.47;;;5.30;;
18168;SDS011;49877;50.398;30.324;2022-07-29T04:28:04;8.47;;;5.00;;
18168;SDS011;49877;50.398;30.324;2022-07-29T04:30:32;7.17;;;3.77;;
18168;SDS011;49877;50.398;30.324;2022-07-29T04:33:02;5.10;;;3.13;;
18168;SDS011;49877;50.398;30.324;2022-07-29T04:35:30;5.53;;;3.20;;
18168;SDS011;49877;50.398;30.324;2022-07-29T04:37:59;6.43;;;2.87;;
18168;SDS011;49877;50.398;30.324;2022-07-29T04:40:27;7.50;;;4.23;;
18168;SDS011;49877;50.398;30.324;2022-07-29T04:42:54;8.20;;;3.67;;
18168;SDS011;49877;50.398;30.324;2022-07-29T04:45:21;8.80;;;4.37;;
18168;SDS011;49877;50.398;30.324;2022-07-29T04:47:48;25.23;;;14.80;;
18168;SDS011;49877;50.398;30.324;2022-07-29T04:50:16;17.37;;;8.40;;
18168;SDS011;49877;50.398;30.324;2022-07-29T04:52:43;12.60;;;5.60;;
18168;SDS011;49877;50.398;30.324;2022-07-29T04:55:10;8.13;;;3.50;;
18168;SDS011;49877;50.398;30.324;2022-07-29T04:57:37;5.67;;;3.40;;
18168;SDS011;49877;50.398;30.324;2022-07-29T05:00:04;7.83;;;3.80;;
18168;SDS011;49877;50.398;30.324;2022-07-29T05:02:32;5.07;;;2.80;;
18168;SDS011;49877;50.398;30.324;2022-07-29T05:04:59;7.40;;;2.97;;
18168;SDS011;49877;50.398;30.324;2022-07-29T05:07:27;5.60;;;2.80;;
18168;SDS011;49877;50.398;30.324;2022-07-29T05:09:54;6.10;;;2.83;;
18168;SDS011;49877;50.398;30.324;2022-07-29T05:12:22;6.30;;;2.70;;
18168;SDS011;49877;50.398;30.324;2022-07-29T05:14:49;4.30;;;2.60;;
18168;SDS011;49877;50.398;30.324;2022-07-29T05:17:16;5.87;;;2.23;;
18168;SDS011;49877;50.398;30.324;2022-07-29T05:19:43;4.63;;;2.77;;
18168;SDS011;49877;50.398;30.324;2022-07-29T05:22:10;7.33;;;2.70;;
18168;SDS011;49877;50.398;30.324;2022-07-29T05:24:38;3.57;;;2.50;;
18168;SDS011;49877;50.398;30.324;2022-07-29T05:27:05;6.77;;;2.80;;
18168;SDS011;49877;50.398;30.324;2022-07-29T05:29:32;13.57;;;5.53;;
18168;SDS011;49877;50.398;30.324;2022-07-29T05:31:59;7.40;;;5.50;;
18168;SDS011;49877;50.398;30.324;2022-07-29T05:34:26;6.13;;;3.20;;
18168;SDS011;49877;50.398;30.324;2022-07-29T05:36:53;4.40;;;2.40;;
18168;SDS011;49877;50.398;30.324;2022-07-29T05:39:20;11.60;;;3.20;;
18168;SDS011;49877;50.398;30.324;2022-07-29T05:41:48;4.63;;;2.30;;
18168;SDS011;49877;50.398;30.324;2022-07-29T05:44:15;4.17;;;2.20;;
18168;SDS011;49877;50.398;30.324;2022-07-29T05:46:42;3.93;;;2.17;;
18168;SDS011;49877;50.398;30.324;2022-07-29T05:49:09;4.00;;;2.30;;
18168;SDS011;49877;50.398;30.324;2022-07-29T05:51:36;5.57;;;2.03;;
18168;SDS011;49877;50.398;30.324;2022-07-29T05:54:03;5.63;;;2.00;;
18168;SDS011;49877;50.398;30.324;2022-07-29T05:56:30;4.83;;;2.00;;
18168;SDS011;49877;50.398;30.324;2022-07-29T05:58:58;5.17;;;1.90;;
18168;SDS011;49877;50.398;30.324;2022-07-29T06:01:25;6.77;;;2.00;;
18168;SDS011;49877;50.398;30.324;2022-07-29T06:03:52;6.47;;;1.90;;
18168;SDS011;49877;50.398;30.324;2022-07-29T06:06:19;3.00;;;1.60;;
18168;SDS011;49877;50.398;30.324;2022-07-29T06:08:46;4.00;;;1.83;;
18168;SDS011;49877;50.398;30.324;2022-07-29T06:11:13;7.17;;;2.00;;
18168;SDS011;49877;50.398;30.324;2022-07-29T06:13:39;3.97;;;1.63;;
18168;SDS011;49877;50.398;30.324;2022-07-29T06:16:08;4.47;;;1.73;;
18168;SDS011;49877;50.398;30.324;2022-07-29T06:18:35;4.37;;;2.00;;
18168;SDS011;49877;50.398;30.324;2022-07-29T06:21:02;4.13;;;1.77;;
18168;SDS011;49877;50.398;30.324;2022-07-29T06:23:34;7.43;;;2.20;;
18168;SDS011;49877;50.398;30.324;2022-07-29T06:26:02;10.07;;;2.23;;
18168;SDS011;49877;50.398;30.324;2022-07-29T06:28:29;9.20;;;2.53;;
18168;SDS011;49877;50.398;30.324;2022-07-29T06:30:56;5.10;;;2.20;;
18168;SDS011;49877;50.398;30.324;2022-07-29T06:33:24;6.33;;;2.10;;
18168;SDS011;49877;50.398;30.324;2022-07-29T06:35:51;4.57;;;2.07;;
18168;SDS011;49877;50.398;30.324;2022-07-29T06:38:18;4.70;;;2.30;;
18168;SDS011;49877;50.398;30.324;2022-07-29T06:40:45;3.77;;;2.00;;
18168;SDS011;49877;50.398;30.324;2022-07-29T06:43:28;4.57;;;1.83;;
18168;SDS011;49877;50.398;30.324;2022-07-29T06:45:59;5.47;;;1.90;;
18168;SDS011;49877;50.398;30.324;2022-07-29T06:48:28;6.63;;;1.87;;
18168;SDS011;49877;50.398;30.324;2022-07-29T06:50:55;5.23;;;2.10;;
18168;SDS011;49877;50.398;30.324;2022-07-29T06:53:22;3.53;;;2.00;;
18168;SDS011;49877;50.398;30.324;2022-07-29T06:55:49;5.23;;;2.47;;
18168;SDS011;49877;50.398;30.324;2022-07-29T06:58:16;9.87;;;2.50;;
18168;SDS011;49877;50.398;30.324;2022-07-29T07:00:45;3.77;;;2.30;;
18168;SDS011;49877;50.398;30.324;2022-07-29T07:03:12;4.77;;;2.20;;
18168;SDS011;49877;50.398;30.324;2022-07-29T07:05:40;7.50;;;2.28;;
18168;SDS011;49877;50.398;30.324;2022-07-29T07:08:07;5.17;;;2.13;;
18168;SDS011;49877;50.398;30.324;2022-07-29T07:10:34;4.65;;;2.10;;
18168;SDS011;49877;50.398;30.324;2022-07-29T07:13:01;6.15;;;2.35;;
18168;SDS011;49877;50.398;30.324;2022-07-29T07:15:28;5.03;;;2.38;;
18168;SDS011;49877;50.398;30.324;2022-07-29T07:17:55;5.83;;;2.30;;
18168;SDS011;49877;50.398;30.324;2022-07-29T07:20:23;9.82;;;2.65;;
18168;SDS011;49877;50.398;30.324;2022-07-29T07:22:52;4.68;;;2.30;;
18168;SDS011;49877;50.398;30.324;2022-07-29T07:25:19;4.35;;;2.90;;
18168;SDS011;49877;50.398;30.324;2022-07-29T07:27:46;5.70;;;2.22;;
18168;SDS011;49877;50.398;30.324;2022-07-29T07:30:13;5.82;;;2.30;;
18168;SDS011;49877;50.398;30.324;2022-07-29T07:32:40;5.20;;;2.30;;
18168;SDS011;49877;50.398;30.324;2022-07-29T07:35:08;4.17;;;2.07;;
18168;SDS011;49877;50.398;30.324;2022-07-29T07:37:36;10.57;;;2.13;;
18168;SDS011;49877;50.398;30.324;2022-07-29T07:40:05;4.07;;;1.90;;
18168;SDS011;49877;50.398;30.324;2022-07-29T07:42:33;5.68;;;1.80;;
18168;SDS011;49877;50.398;30.324;2022-07-29T07:45:00;4.93;;;2.15;;
18168;SDS011;49877;50.398;30.324;2022-07-29T07:47:27;5.15;;;2.17;;
18168;SDS011;49877;50.398;30.324;2022-07-29T07:49:54;4.20;;;1.83;;
18168;SDS011;49877;50.398;30.324;2022-07-29T07:52:21;4.40;;;2.28;;
18168;SDS011;49877;50.398;30.324;2022-07-29T07:54:48;3.20;;;2.00;;
18168;SDS011;49877;50.398;30.324;2022-07-29T07:57:17;4.25;;;2.03;;
18168;SDS011;49877;50.398;30.324;2022-07-29T07:59:43;3.28;;;2.00;;
18168;SDS011;49877;50.398;30.324;2022-07-29T08:02:10;5.65;;;2.25;;
18168;SDS011;49877;50.398;30.324;2022-07-29T08:04:37;7.68;;;2.17;;
18168;SDS011;49877;50.398;30.324;2022-07-29T08:07:06;5.45;;;2.10;;
18168;SDS011;49877;50.398;30.324;2022-07-29T08:09:34;4.22;;;2.15;;
18168;SDS011;49877;50.398;30.324;2022-07-29T08:12:01;5.82;;;2.20;;
18168;SDS011;49877;50.398;30.324;2022-07-29T08:14:32;4.07;;;2.13;;
18168;SDS011;49877;50.398;30.324;2022-07-29T08:16:59;4.45;;;2.22;;
18168;SDS011;49877;50.398;30.324;2022-07-29T08:19:26;4.07;;;2.33;;
18168;SDS011;49877;50.398;30.324;2022-07-29T08:21:53;2.90;;;2.13;;
18168;SDS011;49877;50.398;30.324;2022-07-29T08:24:20;4.13;;;1.90;;
18168;SDS011;49877;50.398;30.324;2022-07-29T08:27:05;3.80;;;2.10;;
18168;SDS011;49877;50.398;30.324;2022-07-29T08:29:33;8.13;;;2.10;;
18168;SDS011;49877;50.398;30.324;2022-07-29T08:32:00;4.78;;;2.20;;
18168;SDS011;49877;50.398;30.324;2022-07-29T08:34:27;4.80;;;2.28;;
18168;SDS011;49877;50.398;30.324;2022-07-29T08:36:55;6.75;;;2.45;;
18168;SDS011;49877;50.398;30.324;2022-07-29T08:39:22;8.75;;;2.10;;
18168;SDS011;49877;50.398;30.324;2022-07-29T08:41:49;6.40;;;2.30;;
18168;SDS011;49877;50.398;30.324;2022-07-29T08:44:17;2.90;;;1.90;;
18168;SDS011;49877;50.398;30.324;2022-07-29T08:46:45;3.53;;;1.98;;
18168;SDS011;49877;50.398;30.324;2022-07-29T08:49:12;3.67;;;2.03;;
18168;SDS011;49877;50.398;30.324;2022-07-29T08:51:39;3.80;;;1.80;;
18168;SDS011;49877;50.398;30.324;2022-07-29T08:54:07;4.82;;;2.13;;
18168;SDS011;49877;50.398;30.324;2022-07-29T08:56:35;3.35;;;1.98;;
18168;SDS011;49877;50.398;30.324;2022-07-29T08:59:04;3.15;;;2.00;;
18168;SDS011;49877;50.398;30.324;2022-07-29T09:01:32;6.45;;;1.90;;
18168;SDS011;49877;50.398;30.324;2022-07-29T09:04:02;4.10;;;1.90;;
18168;SDS011;49877;50.398;30.324;2022-07-29T09:06:32;2.97;;;2.05;;
18168;SDS011;49877;50.398;30.324;2022-07-29T09:09:02;3.25;;;2.13;;
18168;SDS011;49877;50.398;30.324;2022-07-29T09:11:31;2.90;;;2.00;;
18168;SDS011;49877;50.398;30.324;2022-07-29T09:13:58;7.10;;;2.40;;
18168;SDS011;49877;50.398;30.324;2022-07-29T09:16:25;4.57;;;2.17;;
18168;SDS011;49877;50.398;30.324;2022-07-29T09:18:52;4.55;;;2.28;;
18168;SDS011;49877;50.398;30.324;2022-07-29T09:21:20;3.80;;;2.22;;
18168;SDS011;49877;50.398;30.324;2022-07-29T09:24:05;6.43;;;2.80;;
18168;SDS011;49877;50.398;30.324;2022-07-29T09:26:33;5.10;;;2.42;;
18168;SDS011;49877;50.398;30.324;2022-07-29T09:29:07;6.00;;;2.50;;
18168;SDS011;49877;50.398;30.324;2022-07-29T09:31:36;4.43;;;1.75;;
18168;SDS011;49877;50.398;30.324;2022-07-29T09:34:05;4.05;;;2.03;;
18168;SDS011;49877;50.398;30.324;2022-07-29T09:36:39;6.15;;;2.30;;
18168;SDS011;49877;50.398;30.324;2022-07-29T09:39:07;5.25;;;2.50;;
18168;SDS011;49877;50.398;30.324;2022-07-29T09:41:46;3.65;;;2.08;;
18168;SDS011;49877;50.398;30.324;2022-07-29T09:44:14;4.18;;;2.60;;
18168;SDS011;49877;50.398;30.324;2022-07-29T09:46:52;5.57;;;2.28;;
18168;SDS011;49877;50.398;30.324;2022-07-29T09:49:20;4.53;;;1.98;;
18168;SDS011;49877;50.398;30.324;2022-07-29T09:51:48;7.43;;;2.35;;
18168;SDS011;49877;50.398;30.324;2022-07-29T09:54:26;2.70;;;2.10;;
18168;SDS011;49877;50.398;30.324;2022-07-29T09:56:54;5.72;;;2.42;;
18168;SDS011;49877;50.398;30.324;2022-07-29T09:59:21;4.10;;;2.25;;
18168;SDS011;49877;50.398;30.324;2022-07-29T10:01:51;3.65;;;2.38;;
18168;SDS011;49877;50.398;30.324;2022-07-29T10:04:18;3.25;;;2.25;;
18168;SDS011;49877;50.398;30.324;2022-07-29T10:06:56;4.25;;;2.20;;
18168;SDS011;49877;50.398;30.324;2022-07-29T10:09:24;3.85;;;2.35;;
18168;SDS011;49877;50.398;30.324;2022-07-29T10:12:07;3.25;;;2.20;;
18168;SDS011;49877;50.398;30.324;2022-07-29T10:14:36;5.00;;;3.20;;
18168;SDS011;49877;50.398;30.324;2022-07-29T10:17:04;4.32;;;2.50;;
18168;SDS011;49877;50.398;30.324;2022-07-29T10:19:32;5.50;;;2.22;;
18168;SDS011;49877;50.398;30.324;2022-07-29T10:22:02;3.78;;;2.08;;
18168;SDS011;49877;50.398;30.324;2022-07-29T10:24:30;6.00;;;2.20;;
18168;SDS011;49877;50.398;30.324;2022-07-29T10:26:59;3.90;;;2.20;;
18168;SDS011;49877;50.398;30.324;2022-07-29T10:29:27;3.53;;;2.10;;
18168;SDS011;49877;50.398;30.324;2022-07-29T10:32:13;4.55;;;2.10;;
18168;SDS011;49877;50.398;30.324;2022-07-29T10:35:01;5.80;;;2.53;;
18168;SDS011;49877;50.398;30.324;2022-07-29T10:37:42;4.80;;;2.22;;
18168;SDS011;49877;50.398;30.324;2022-07-29T10:40:23;5.38;;;2.17;;
18168;SDS011;49877;50.398;30.324;2022-07-29T10:43:17;5.38;;;2.28;;
18168;SDS011;49877;50.398;30.324;2022-07-29T10:45:46;4.38;;;2.08;;
18168;SDS011;49877;50.398;30.324;2022-07-29T10:48:14;4.00;;;2.13;;
18168;SDS011;49877;50.398;30.324;2022-07-29T10:50:54;2.75;;;2.00;;
18168;SDS011;49877;50.398;30.324;2022-07-29T10:53:45;5.07;;;2.78;;
18168;SDS011;49877;50.398;30.324;2022-07-29T10:56:22;3.70;;;2.10;;
18168;SDS011;49877;50.398;30.324;2022-07-29T11:01:51;3.97;;;2.20;;
18168;SDS011;49877;50.398;30.324;2022-07-29T11:07:19;7.22;;;3.85;;
18168;SDS011;49877;50.398;30.324;2022-07-29T11:12:49;3.92;;;2.35;;
18168;SDS011;49877;50.398;30.324;2022-07-29T11:15:18;5.78;;;2.40;;
18168;SDS011;49877;50.398;30.324;2022-07-29T11:18:05;3.22;;;2.30;;
18168;SDS011;49877;50.398;30.324;2022-07-29T11:20:33;4.95;;;2.20;;
18168;SDS011;49877;50.398;30.324;2022-07-29T11:23:03;3.45;;;2.17;;
18168;SDS011;49877;50.398;30.324;2022-07-29T11:29:00;4.40;;;2.38;;
18168;SDS011;49877;50.398;30.324;2022-07-29T11:31:34;3.85;;;2.28;;
18168;SDS011;49877;50.398;30.324;2022-07-29T11:34:15;3.92;;;2.17;;
18168;SDS011;49877;50.398;30.324;2022-07-29T11:39:47;3.45;;;2.00;;
18168;SDS011;49877;50.398;30.324;2022-07-29T11:42:39;5.32;;;2.33;;
18168;SDS011;49877;50.398;30.324;2022-07-29T11:45:07;3.92;;;2.10;;
18168;SDS011;49877;50.398;30.324;2022-07-29T11:47:36;3.20;;;1.90;;
18168;SDS011;49877;50.398;30.324;2022-07-29T11:50:04;4.75;;;2.30;;
18168;SDS011;49877;50.398;30.324;2022-07-29T11:52:33;2.83;;;2.30;;
18168;SDS011;49877;50.398;30.324;2022-07-29T11:55:03;3.95;;;2.33;;
18168;SDS011;49877;50.398;30.324;2022-07-29T11:57:31;3.00;;;2.03;;
18168;SDS011;49877;50.398;30.324;2022-07-29T12:00:00;3.25;;;2.33;;
18168;SDS011;49877;50.398;30.324;2022-07-29T12:02:37;6.32;;;3.05;;
18168;SDS011;49877;50.398;30.324;2022-07-29T12:05:07;3.97;;;2.28;;
18168;SDS011;49877;50.398;30.324;2022-07-29T12:07:35;5.00;;;2.38;;
18168;SDS011;49877;50.398;30.324;2022-07-29T12:10:04;5.95;;;2.30;;
18168;SDS011;49877;50.398;30.324;2022-07-29T12:12:32;3.78;;;2.35;;
18168;SDS011;49877;50.398;30.324;2022-07-29T12:15:11;5.18;;;2.20;;
18168;SDS011;49877;50.398;30.324;2022-07-29T12:17:39;2.22;;;2.00;;
18168;SDS011;49877;50.398;30.324;2022-07-29T12:20:07;4.18;;;2.03;;
18168;SDS011;49877;50.398;30.324;2022-07-29T12:22:36;3.75;;;2.30;;
18168;SDS011;49877;50.398;30.324;2022-07-29T12:25:06;5.53;;;2.40;;
18168;SDS011;49877;50.398;30.324;2022-07-29T12:27:34;3.42;;;2.10;;
18168;SDS011;49877;50.398;30.324;2022-07-29T12:30:04;4.70;;;2.40;;
18168;SDS011;49877;50.398;30.324;2022-07-29T12:32:34;4.97;;;2.70;;
18168;SDS011;49877;50.398;30.324;2022-07-29T12:35:03;4.68;;;2.60;;
18168;SDS011;49877;50.398;30.324;2022-07-29T12:37:32;5.20;;;2.13;;
18168;SDS011;49877;50.398;30.324;2022-07-29T12:40:00;3.63;;;2.28;;
18168;SDS011;49877;50.398;30.324;2022-07-29T12:42:27;3.53;;;2.22;;
18168;SDS011;49877;50.398;30.324;2022-07-29T12:44:54;2.72;;;2.40;;
18168;SDS011;49877;50.398;30.324;2022-07-29T12:47:21;3.78;;;2.28;;
18168;SDS011;49877;50.398;30.324;2022-07-29T12:49:49;5.00;;;2.15;;
18168;SDS011;49877;50.398;30.324;2022-07-29T12:52:23;4.28;;;2.40;;
18168;SDS011;49877;50.398;30.324;2022-07-29T12:54:54;4.88;;;2.40;;
18168;SDS011;49877;50.398;30.324;2022-07-29T12:57:21;4.57;;;2.60;;
18168;SDS011;49877;50.398;30.324;2022-07-29T12:59:59;4.47;;;2.20;;
18168;SDS011;49877;50.398;30.324;2022-07-29T13:02:28;5.10;;;2.25;;
18168;SDS011;49877;50.398;30.324;2022-07-29T13:04:56;3.58;;;2.20;;
18168;SDS011;49877;50.398;30.324;2022-07-29T13:07:24;3.90;;;2.30;;
18168;SDS011;49877;50.398;30.324;2022-07-29T13:09:54;3.40;;;1.80;;
18168;SDS011;49877;50.398;30.324;2022-07-29T13:12:35;3.65;;;2.45;;
18168;SDS011;49877;50.398;30.324;2022-07-29T13:15:11;3.38;;;2.00;;
18168;SDS011;49877;50.398;30.324;2022-07-29T13:17:40;3.38;;;2.20;;
18168;SDS011;49877;50.398;30.324;2022-07-29T13:20:11;3.22;;;2.08;;
18168;SDS011;49877;50.398;30.324;2022-07-29T13:22:39;3.78;;;2.55;;
18168;SDS011;49877;50.398;30.324;2022-07-29T13:25:07;4.00;;;2.33;;
18168;SDS011;49877;50.398;30.324;2022-07-29T13:27:37;4.00;;;2.45;;
18168;SDS011;49877;50.398;30.324;2022-07-29T13:30:05;4.10;;;2.10;;
18168;SDS011;49877;50.398;30.324;2022-07-29T13:32:34;4.22;;;2.35;;
18168;SDS011;49877;50.398;30.324;2022-07-29T13:35:02;5.88;;;2.25;;
18168;SDS011;49877;50.398;30.324;2022-07-29T13:37:32;8.52;;;2.78;;
18168;SDS011;49877;50.398;30.324;2022-07-29T13:40:03;3.85;;;2.10;;
18168;SDS011;49877;50.398;30.324;2022-07-29T13:42:31;3.95;;;2.55;;
18168;SDS011;49877;50.398;30.324;2022-07-29T13:44:58;3.38;;;2.17;;
18168;SDS011;49877;50.398;30.324;2022-07-29T13:47:26;4.35;;;2.35;;
18168;SDS011;49877;50.398;30.324;2022-07-29T13:49:53;3.17;;;1.92;;
18168;SDS011;49877;50.398;30.324;2022-07-29T13:52:20;5.25;;;2.28;;
18168;SDS011;49877;50.398;30.324;2022-07-29T13:54:49;3.55;;;2.38;;
18168;SDS011;49877;50.398;30.324;2022-07-29T13:57:16;6.18;;;2.67;;
18168;SDS011;49877;50.398;30.324;2022-07-29T13:59:43;4.13;;;2.42;;
18168;SDS011;49877;50.398;30.324;2022-07-29T14:02:10;3.25;;;2.33;;
18168;SDS011;49877;50.398;30.324;2022-07-29T14:04:38;6.88;;;2.70;;
18168;SDS011;49877;50.398;30.324;2022-07-29T14:07:06;4.25;;;2.42;;
18168;SDS011;49877;50.398;30.324;2022-07-29T14:09:33;4.35;;;2.75;;
18168;SDS011;49877;50.398;30.324;2022-07-29T14:12:01;3.65;;;2.30;;
18168;SDS011;49877;50.398;30.324;2022-07-29T14:14:28;4.57;;;2.15;;
18168;SDS011;49877;50.398;30.324;2022-07-29T14:16:57;4.35;;;2.40;;
18168;SDS011;49877;50.398;30.324;2022-07-29T14:19:24;4.40;;;2.20;;
18168;SDS011;49877;50.398;30.324;2022-07-29T14:21:51;4.72;;;2.22;;
18168;SDS011;49877;50.398;30.324;2022-07-29T14:24:18;3.45;;;2.22;;
18168;SDS011;49877;50.398;30.324;2022-07-29T14:26:44;3.25;;;2.33;;
18168;SDS011;49877;50.398;30.324;2022-07-29T14:29:13;4.07;;;2.38;;
18168;SDS011;49877;50.398;30.324;2022-07-29T14:31:40;4.20;;;2.60;;
18168;SDS011;49877;50.398;30.324;2022-07-29T14:34:08;4.30;;;2.22;;
18168;SDS011;49877;50.398;30.324;2022-07-29T14:36:34;4.82;;;3.30;;
18168;SDS011;49877;50.398;30.324;2022-07-29T14:39:01;3.15;;;2.40;;
18168;SDS011;49877;50.398;30.324;2022-07-29T14:41:29;4.13;;;2.50;;
18168;SDS011;49877;50.398;30.324;2022-07-29T14:43:56;2.85;;;2.22;;
18168;SDS011;49877;50.398;30.324;2022-07-29T14:46:27;3.70;;;2.58;;
18168;SDS011;49877;50.398;30.324;2022-07-29T14:48:54;7.35;;;2.88;;
18168;SDS011;49877;50.398;30.324;2022-07-29T14:51:21;3.65;;;2.60;;
18168;SDS011;49877;50.398;30.324;2022-07-29T14:53:48;5.40;;;2.80;;
18168;SDS011;49877;50.398;30.324;2022-07-29T14:56:15;5.47;;;2.90;;
18168;SDS011;49877;50.398;30.324;2022-07-29T14:58:42;6.38;;;2.88;;
18168;SDS011;49877;50.398;30.324;2022-07-29T15:01:08;4.10;;;2.88;;
18168;SDS011;49877;50.398;30.324;2022-07-29T15:03:37;5.30;;;3.60;;